Time;durP1;ratioP1;P1;durP2;ratioP2;P2;SDS_P1;SDS_P2;PMS_P1;PMS_P2;Temp;Humidity;BMP_temperature;BMP_pressure;BME280_temperature;BME280_humidity;BME280_pressure;Samples;Min_cycle;Max_cycle;Signal;HPM_P1;HPM_P2
2023/01/09 00:00:58;;;;;;;;;;;6.70;99.90;;;;;;5077281;28;985;-74
2023/01/09 00:03:24;;;;;;;;;;;6.70;99.90;;;;;;5060101;28;1697;-74
2023/01/09 00:05:50;;;;;;;;;;;6.80;99.90;;;;;;5078465;28;1020;-74
2023/01/09 00:08:17;;;;;;;;;;;6.80;99.90;;;;;;5078306;28;1112;-74
2023/01/09 00:10:43;;;;;;;;;;;6.90;99.90;;;;;;5063522;28;1918;-74
2023/01/09 00:13:10;;;;;;;;;;;6.90;99.90;;;;;;5081470;28;975;-74
2023/01/09 00:15:36;;;;;;;;;;;6.90;99.90;;;;;;5081482;28;1009;-74
2023/01/09 00:18:02;;;;;;;;;;;6.90;99.90;;;;;;5082657;28;1123;-74
2023/01/09 00:20:28;;;;;;;;;;;6.90;99.90;;;;;;5081385;28;1023;-74
2023/01/09 00:22:53;;;;;;;;;;;6.90;99.90;;;;;;5081124;28;1039;-75
2023/01/09 00:25:21;;;;;;;;;;;7.00;99.90;;;;;;5082151;28;1022;-74
2023/01/09 00:27:47;;;;;;;;;;;7.00;99.90;;;;;;5081089;28;1036;-74
2023/01/09 00:30:13;;;;;;;;;;;7.00;99.90;;;;;;5081452;28;1956;-75
2023/01/09 00:32:39;;;;;;;;;;;7.00;99.90;;;;;;5081781;28;1022;-74
2023/01/09 00:35:05;;;;;;;;;;;7.00;99.90;;;;;;5063013;28;1072;-74
2023/01/09 00:37:31;;;;;;;;;;;7.00;99.90;;;;;;5081020;28;1312;-74
2023/01/09 00:39:57;;;;;;;;;;;7.00;99.90;;;;;;5082681;28;946;-74
2023/01/09 00:42:24;;;;;;;;;;;7.00;99.90;;;;;;5080943;28;1047;-74
2023/01/09 00:44:52;;;;;;;;;;;7.00;99.90;;;;;;5064182;28;1033;-74
2023/01/09 00:47:20;;;;;;;;;;;7.00;99.90;;;;;;5081079;28;1040;-74
2023/01/09 00:49:46;;;;;;;;;;;7.10;99.90;;;;;;5080379;28;1969;-74
2023/01/09 00:52:12;;;;;;;;;;;7.10;99.90;;;;;;5081994;28;1380;-74
2023/01/09 00:54:38;;;;;;;;;;;7.00;99.90;;;;;;5081053;28;1036;-74
2023/01/09 00:57:04;;;;;;;;;;;7.10;99.90;;;;;;5080446;28;1306;-74
2023/01/09 00:59:29;;;;;;;;;;;7.10;99.90;;;;;;5081547;28;1010;-74
2023/01/09 01:01:55;;;;;;;;;;;7.10;99.90;;;;;;5081505;28;1027;-74
2023/01/09 01:09:49;;;;;;;;;;;6.60;99.90;;;;;;5081405;28;1914;-74
2023/01/09 01:12:15;;;;;;;;;;;6.30;99.90;;;;;;5079186;28;1057;-74
2023/01/09 01:14:40;;;;;;;;;;;6.10;99.90;;;;;;5081440;28;1048;-74
2023/01/09 01:17:06;;;;;;;;;;;6.00;99.90;;;;;;5080641;28;1138;-74
2023/01/09 01:19:33;;;;;;;;;;;6.10;99.90;;;;;;5079833;28;1091;-74
2023/01/09 01:21:58;;;;;;;;;;;5.90;99.90;;;;;;5080226;28;989;-73
2023/01/09 01:24:24;;;;;;;;;;;5.80;99.90;;;;;;5079983;28;957;-73
2023/01/09 01:26:49;;;;;;;;;;;5.70;99.90;;;;;;5080509;28;942;-73
2023/01/09 01:29:15;;;;;;;;;;;5.70;99.90;;;;;;5080642;28;1040;-73
2023/01/09 01:31:41;;;;;;;;;;;5.70;99.90;;;;;;5062258;28;1909;-73
2023/01/09 01:34:06;;;;;;;;;;;5.70;99.90;;;;;;5080589;28;1051;-73
2023/01/09 01:36:32;;;;;;;;;;;5.70;99.90;;;;;;5080558;28;1033;-73
2023/01/09 01:38:58;;;;;;;;;;;5.70;99.90;;;;;;5079223;28;966;-73
2023/01/09 01:41:30;;;;;;;;;;;5.80;99.90;;;;;;5080642;28;1026;-73
2023/01/09 01:43:57;;;;;;;;;;;5.80;99.90;;;;;;5080684;28;1092;-73
2023/01/09 01:46:23;;;;;;;;;;;5.70;99.90;;;;;;5079835;28;1004;-73
2023/01/09 01:48:51;;;;;;;;;;;5.80;99.90;;;;;;5061301;28;1104;-73
2023/01/09 01:51:18;;;;;;;;;;;5.70;99.90;;;;;;5080672;28;1914;-73
2023/01/09 01:53:47;;;;;;;;;;;5.80;99.90;;;;;;5080758;28;1067;-73
2023/01/09 01:56:12;;;;;;;;;;;5.70;99.90;;;;;;5061592;28;1268;-73
2023/01/09 01:58:41;;;;;;;;;;;5.70;99.90;;;;;;5080256;28;1079;-73
2023/01/09 02:01:07;;;;;;;;;;;5.70;99.90;;;;;;5079713;28;1044;-73
2023/01/09 02:03:33;;;;;;;;;;;5.80;99.90;;;;;;5079898;28;1198;-73
2023/01/09 02:05:59;;;;;;;;;;;5.80;99.90;;;;;;5061430;28;1099;-73
2023/01/09 02:08:25;;;;;;;;;;;5.90;99.90;;;;;;5080682;28;970;-73
2023/01/09 02:10:51;;;;;;;;;;;5.90;99.90;;;;;;5079931;28;1902;-73
2023/01/09 02:13:17;;;;;;;;;;;6.00;99.90;;;;;;5079562;28;1032;-73
2023/01/09 02:15:52;;;;;;;;;;;6.00;99.90;;;;;;5078807;28;1026;-72
2023/01/09 02:18:24;;;;;;;;;;;6.00;99.90;;;;;;5079624;28;1160;-73
2023/01/09 02:20:53;;;;;;;;;;;6.10;99.90;;;;;;5079530;28;1104;-73
2023/01/09 02:23:19;;;;;;;;;;;6.10;99.90;;;;;;5061217;28;1063;-73
2023/01/09 02:25:49;;;;;;;;;;;6.10;99.90;;;;;;5079080;28;926;-73
2023/01/09 02:28:14;;;;;;;;;;;6.10;99.90;;;;;;5078802;28;813;-74
2023/01/09 02:30:53;;;;;;;;;;;6.10;99.90;;;;;;5079748;28;1930;-73
2023/01/09 02:33:26;;;;;;;;;;;6.10;99.90;;;;;;5078270;28;1173;-73
2023/01/09 02:35:52;;;;;;;;;;;6.20;99.90;;;;;;5078809;28;910;-74
2023/01/09 02:38:23;;;;;;;;;;;6.20;99.90;;;;;;5079617;28;1174;-74
2023/01/09 02:40:57;;;;;;;;;;;6.20;99.90;;;;;;5078984;28;1196;-73
2023/01/09 02:43:23;;;;;;;;;;;6.30;99.90;;;;;;5078325;28;1024;-74
2023/01/09 02:45:48;;;;;;;;;;;6.30;99.90;;;;;;5079887;28;992;-73
2023/01/09 02:48:14;;;;;;;;;;;6.20;99.90;;;;;;5060840;28;1099;-74
2023/01/09 02:50:46;;;;;;;;;;;6.20;99.90;;;;;;5078119;28;1985;-74
2023/01/09 02:53:24;;;;;;;;;;;6.20;99.90;;;;;;5061483;28;1059;-74
2023/01/09 02:55:54;;;;;;;;;;;6.20;99.90;;;;;;5078212;28;1233;-74
2023/01/09 02:58:35;;;;;;;;;;;6.10;99.90;;;;;;5078949;28;1013;-74
2023/01/09 03:01:11;;;;;;;;;;;6.10;99.90;;;;;;5079074;28;970;-74
2023/01/09 03:03:39;;;;;;;;;;;6.10;99.90;;;;;;5077978;28;1166;-74
2023/01/09 03:06:11;;;;;;;;;;;6.00;99.90;;;;;;5078909;28;1004;-74
2023/01/09 03:08:38;;;;;;;;;;;5.90;99.90;;;;;;5078756;28;1029;-73
2023/01/09 03:11:06;;;;;;;;;;;5.90;99.90;;;;;;5078105;28;1918;-73
2023/01/09 03:13:35;;;;;;;;;;;5.90;99.90;;;;;;5078897;28;1024;-73
2023/01/09 03:16:04;;;;;;;;;;;5.90;99.90;;;;;;5078132;28;969;-74
2023/01/09 03:18:30;;;;;;;;;;;6.10;99.90;;;;;;5078093;28;1016;-74
2023/01/09 03:20:56;;;;;;;;;;;5.80;99.90;;;;;;5078533;28;1071;-74
2023/01/09 03:23:22;;;;;;;;;;;5.80;99.90;;;;;;5078610;28;1063;-74
2023/01/09 03:25:47;;;;;;;;;;;5.80;99.90;;;;;;5077152;28;1079;-74
2023/01/09 03:28:27;;;;;;;;;;;5.70;99.90;;;;;;5078571;28;1001;-74
2023/01/09 03:30:52;;;;;;;;;;;5.70;99.90;;;;;;5059075;28;1914;-74
2023/01/09 03:33:18;;;;;;;;;;;5.70;99.90;;;;;;5078371;28;1079;-74
2023/01/09 03:35:44;;;;;;;;;;;5.60;99.90;;;;;;5078437;28;1064;-74
2023/01/09 03:38:10;;;;;;;;;;;5.60;99.90;;;;;;5077619;28;1048;-74
2023/01/09 03:40:35;;;;;;;;;;;5.60;99.90;;;;;;5078517;28;1037;-74
2023/01/09 03:43:01;;;;;;;;;;;5.60;99.90;;;;;;5077952;28;1021;-74
2023/01/09 03:45:27;;;;;;;;;;;5.50;99.90;;;;;;5077570;28;1052;-74
2023/01/09 03:47:52;;;;;;;;;;;5.50;99.90;;;;;;5077997;28;976;-74
2023/01/09 03:50:18;;;;;;;;;;;5.50;99.90;;;;;;5077866;28;1914;-74
2023/01/09 03:52:44;;;;;;;;;;;5.50;99.90;;;;;;5059808;28;1290;-74
2023/01/09 03:55:09;;;;;;;;;;;5.40;99.90;;;;;;5077949;28;1220;-74
2023/01/09 03:57:35;;;;;;;;;;;5.40;99.90;;;;;;5059851;28;993;-74
2023/01/09 04:00:01;;;;;;;;;;;5.40;99.90;;;;;;5060025;28;1271;-74
2023/01/09 04:02:26;;;;;;;;;;;5.40;99.90;;;;;;5059720;28;986;-74
2023/01/09 04:04:52;;;;;;;;;;;5.30;99.90;;;;;;5078424;28;1352;-74
2023/01/09 04:07:18;;;;;;;;;;;5.40;99.90;;;;;;5077721;28;1028;-73
2023/01/09 04:09:43;;;;;;;;;;;5.40;99.90;;;;;;5078005;28;1012;-74
2023/01/09 04:12:09;;;;;;;;;;;5.30;99.90;;;;;;5078206;28;1969;-73
2023/01/09 04:14:35;;;;;;;;;;;5.30;99.90;;;;;;5077440;28;1166;-74
2023/01/09 04:17:00;;;;;;;;;;;5.30;99.90;;;;;;5077908;28;906;-74
2023/01/09 04:19:26;;;;;;;;;;;5.30;99.90;;;;;;5077450;28;1035;-74
2023/01/09 04:21:52;;;;;;;;;;;5.30;99.90;;;;;;5077826;28;974;-74
2023/01/09 04:24:17;;;;;;;;;;;5.40;99.90;;;;;;5059074;28;1010;-74
2023/01/09 04:26:43;;;;;;;;;;;5.30;99.90;;;;;;5077614;28;1040;-74
2023/01/09 04:29:08;;;;;;;;;;;5.30;99.90;;;;;;5077157;28;955;-74
2023/01/09 04:31:34;;;;;;;;;;;5.30;99.90;;;;;;5077513;28;1914;-74
2023/01/09 04:34:00;;;;;;;;;;;5.30;99.90;;;;;;5077751;28;1029;-74
2023/01/09 04:36:25;;;;;;;;;;;5.20;99.90;;;;;;5076980;28;1173;-74
2023/01/09 04:38:51;;;;;;;;;;;5.20;99.90;;;;;;5059674;28;1084;-74
2023/01/09 04:41:47;;;;;;;;;;;5.20;99.90;;;;;;5077209;28;963;-75
2023/01/09 04:44:02;;;;;;;;;;;5.20;99.90;;;;;;5077691;28;1636;-74
2023/01/09 04:46:28;;;;;;;;;;;5.10;99.90;;;;;;5077694;28;1033;-74
2023/01/09 04:48:54;;;;;;;;;;;5.10;99.90;;;;;;5077965;28;970;-74
2023/01/09 04:51:19;;;;;;;;;;;5.10;99.90;;;;;;5059782;28;1906;-74
2023/01/09 04:53:45;;;;;;;;;;;5.10;99.90;;;;;;5077258;28;1185;-74
2023/01/09 04:56:11;;;;;;;;;;;5.10;99.90;;;;;;5078203;28;1725;-74
2023/01/09 04:58:36;;;;;;;;;;;5.10;99.90;;;;;;5063638;28;1017;-74
2023/01/09 05:01:02;;;;;;;;;;;5.10;99.90;;;;;;5080634;28;1333;-74
2023/01/09 05:03:27;;;;;;;;;;;5.00;99.90;;;;;;5079997;28;1126;-74
2023/01/09 05:05:53;;;;;;;;;;;5.10;99.90;;;;;;5081729;28;1072;-74
2023/01/09 05:08:19;;;;;;;;;;;5.10;99.90;;;;;;5063425;28;1111;-74
2023/01/09 05:10:44;;;;;;;;;;;5.00;99.90;;;;;;5079450;28;1981;-74
2023/01/09 05:13:10;;;;;;;;;;;5.00;99.90;;;;;;5081104;28;1016;-74
2023/01/09 05:15:35;;;;;;;;;;;5.00;99.90;;;;;;5062475;28;986;-74
2023/01/09 05:18:01;;;;;;;;;;;5.00;99.90;;;;;;5062080;28;1021;-74
2023/01/09 05:20:27;;;;;;;;;;;5.00;99.90;;;;;;5062430;28;1047;-74
2023/01/09 05:22:52;;;;;;;;;;;5.00;99.90;;;;;;5080452;28;981;-74
2023/01/09 05:25:18;;;;;;;;;;;5.00;99.90;;;;;;5062543;28;1026;-75
2023/01/09 05:27:45;;;;;;;;;;;5.00;99.90;;;;;;5080327;28;874;-74
2023/01/09 05:30:11;;;;;;;;;;;5.10;99.90;;;;;;5080001;28;1918;-74
2023/01/09 05:32:37;;;;;;;;;;;5.00;99.90;;;;;;5061705;28;1172;-74
2023/01/09 05:35:02;;;;;;;;;;;5.10;99.90;;;;;;5080922;28;1076;-74
2023/01/09 05:37:28;;;;;;;;;;;5.00;99.90;;;;;;5079443;28;1130;-74
2023/01/09 05:39:54;;;;;;;;;;;5.10;99.90;;;;;;5063509;28;1013;-74
2023/01/09 05:42:19;;;;;;;;;;;5.10;99.90;;;;;;5080516;28;969;-74
2023/01/09 05:44:45;;;;;;;;;;;5.10;99.90;;;;;;5061738;28;1061;-74
2023/01/09 05:47:11;;;;;;;;;;;5.30;99.90;;;;;;5062175;28;1135;-74
2023/01/09 05:49:36;;;;;;;;;;;5.10;99.90;;;;;;5080991;28;1042;-75
2023/01/09 05:52:02;;;;;;;;;;;5.10;99.90;;;;;;5079572;28;2004;-74
2023/01/09 05:54:28;;;;;;;;;;;5.20;99.90;;;;;;5080623;28;1004;-74
2023/01/09 05:56:53;;;;;;;;;;;5.20;99.90;;;;;;5079467;28;1277;-74
2023/01/09 05:59:19;;;;;;;;;;;5.40;99.90;;;;;;5079006;28;1164;-75
2023/01/09 06:01:44;;;;;;;;;;;5.20;99.90;;;;;;5080357;28;1004;-74
2023/01/09 06:04:10;;;;;;;;;;;5.20;99.90;;;;;;5079740;28;1197;-74
2023/01/09 06:06:36;;;;;;;;;;;5.20;99.90;;;;;;5078971;28;1059;-74
2023/01/09 06:09:02;;;;;;;;;;;5.20;99.90;;;;;;5080536;28;1036;-74
2023/01/09 06:11:28;;;;;;;;;;;5.20;99.90;;;;;;5079831;28;1909;-74
2023/01/09 06:13:53;;;;;;;;;;;5.30;99.90;;;;;;5078130;28;1068;-74
2023/01/09 06:16:19;;;;;;;;;;;5.20;99.90;;;;;;5061506;28;1043;-74
2023/01/09 06:18:45;;;;;;;;;;;5.30;99.90;;;;;;5080136;28;1037;-75
2023/01/09 06:21:10;;;;;;;;;;;5.30;99.90;;;;;;5078535;28;1019;-74
2023/01/09 06:23:36;;;;;;;;;;;5.30;99.90;;;;;;5079336;28;1133;-75
2023/01/09 06:26:02;;;;;;;;;;;5.30;99.90;;;;;;5079284;28;1029;-74
2023/01/09 06:28:27;;;;;;;;;;;5.40;99.90;;;;;;5079656;28;1040;-74
2023/01/09 06:30:53;;;;;;;;;;;5.40;99.90;;;;;;5078737;28;1918;-74
2023/01/09 06:33:19;;;;;;;;;;;5.40;99.90;;;;;;5080015;28;1005;-75
2023/01/09 06:35:45;;;;;;;;;;;5.40;99.90;;;;;;5078521;28;993;-75
2023/01/09 06:38:11;;;;;;;;;;;5.50;99.90;;;;;;5079415;28;1034;-74
2023/01/09 06:40:37;;;;;;;;;;;5.50;99.90;;;;;;5079474;28;1068;-75
2023/01/09 06:43:03;;;;;;;;;;;5.50;99.90;;;;;;5078347;28;982;-75
2023/01/09 06:45:29;;;;;;;;;;;5.50;99.90;;;;;;5080096;28;1009;-75
2023/01/09 06:47:55;;;;;;;;;;;5.50;99.90;;;;;;5078475;28;1029;-75
2023/01/09 06:50:20;;;;;;;;;;;5.50;99.90;;;;;;5079430;28;1905;-75
2023/01/09 06:52:46;;;;;;;;;;;5.50;99.90;;;;;;5061027;28;1301;-75
2023/01/09 06:55:12;;;;;;;;;;;5.50;99.90;;;;;;5078033;28;1390;-75
2023/01/09 06:57:37;;;;;;;;;;;5.50;99.90;;;;;;5078573;28;1040;-75
2023/01/09 07:00:04;;;;;;;;;;;5.60;99.90;;;;;;5078614;28;1083;-74
2023/01/09 07:02:29;;;;;;;;;;;5.60;99.90;;;;;;5078332;28;1032;-75
2023/01/09 07:04:55;;;;;;;;;;;5.60;99.90;;;;;;5061034;28;1370;-75
2023/01/09 07:07:21;;;;;;;;;;;5.60;99.90;;;;;;5060282;28;1063;-75
2023/01/09 07:09:47;;;;;;;;;;;5.60;99.90;;;;;;5078306;28;1024;-75
2023/01/09 07:12:14;;;;;;;;;;;5.60;99.90;;;;;;5078777;28;1917;-75
2023/01/09 07:14:39;;;;;;;;;;;5.60;99.90;;;;;;5077675;28;1051;-75
2023/01/09 07:17:05;;;;;;;;;;;5.60;99.90;;;;;;5060678;28;1259;-75
2023/01/09 07:19:31;;;;;;;;;;;5.60;99.90;;;;;;5059761;28;1056;-76
2023/01/09 07:21:57;;;;;;;;;;;5.50;99.90;;;;;;5078712;28;993;-75
2023/01/09 07:24:22;;;;;;;;;;;5.50;99.90;;;;;;5042349;28;1596;-75
2023/01/09 07:26:48;;;;;;;;;;;5.50;99.90;;;;;;5078334;28;1044;-75
2023/01/09 07:29:14;;;;;;;;;;;5.50;99.90;;;;;;5078153;28;1033;-76
2023/01/09 07:31:39;;;;;;;;;;;5.50;99.90;;;;;;5077449;28;1938;-75
2023/01/09 07:34:05;;;;;;;;;;;5.40;99.90;;;;;;5078174;28;1131;-75
2023/01/09 07:36:30;;;;;;;;;;;5.40;99.90;;;;;;5060181;28;1156;-75
2023/01/09 07:38:56;;;;;;;;;;;5.40;99.90;;;;;;5078076;28;974;-75
2023/01/09 07:41:22;;;;;;;;;;;5.50;99.90;;;;;;5077917;28;1020;-75
2023/01/09 07:43:47;;;;;;;;;;;5.50;99.90;;;;;;5078653;28;1024;-75
2023/01/09 07:46:13;;;;;;;;;;;5.50;99.90;;;;;;5078198;28;1089;-75
2023/01/09 07:48:39;;;;;;;;;;;5.50;99.90;;;;;;5078431;28;996;-75
2023/01/09 07:51:05;;;;;;;;;;;5.50;99.90;;;;;;5077113;28;2047;-75
2023/01/09 07:53:30;;;;;;;;;;;5.50;99.90;;;;;;5078156;28;1038;-75
2023/01/09 07:55:56;;;;;;;;;;;5.50;99.90;;;;;;5078237;28;1178;-75
2023/01/09 07:58:22;;;;;;;;;;;5.50;99.90;;;;;;5077269;28;1015;-75
2023/01/09 08:00:49;;;;;;;;;;;5.50;99.90;;;;;;5077982;28;994;-75
2023/01/09 08:03:14;;;;;;;;;;;5.50;99.90;;;;;;5077922;28;1214;-75
2023/01/09 08:05:40;;;;;;;;;;;5.60;99.90;;;;;;5077319;28;1008;-75
2023/01/09 08:08:06;;;;;;;;;;;5.50;99.90;;;;;;5060059;28;969;-75
2023/01/09 08:10:31;;;;;;;;;;;5.60;99.90;;;;;;5078283;28;1922;-75
2023/01/09 08:12:57;;;;;;;;;;;5.50;99.90;;;;;;5077268;28;992;-74
2023/01/09 08:15:23;;;;;;;;;;;5.50;99.90;;;;;;5078095;28;1000;-74
2023/01/09 08:17:48;;;;;;;;;;;5.60;99.90;;;;;;5077883;28;1028;-74
2023/01/09 08:20:15;;;;;;;;;;;5.60;99.90;;;;;;5076976;28;829;-74
2023/01/09 08:22:41;;;;;;;;;;;5.60;99.90;;;;;;5077552;28;962;-74
2023/01/09 08:25:07;;;;;;;;;;;5.60;99.90;;;;;;5078158;28;969;-74
2023/01/09 08:27:32;;;;;;;;;;;5.60;99.90;;;;;;5076284;28;1166;-75
2023/01/09 08:29:58;;;;;;;;;;;5.70;99.90;;;;;;5060310;28;1909;-74
2023/01/09 08:32:24;;;;;;;;;;;5.70;99.90;;;;;;5081752;28;1056;-74
2023/01/09 08:34:50;;;;;;;;;;;5.80;99.90;;;;;;5080423;28;1067;-74
2023/01/09 08:37:16;;;;;;;;;;;5.80;99.90;;;;;;5081674;28;1063;-74
2023/01/09 08:39:41;;;;;;;;;;;5.80;99.90;;;;;;5081954;28;1012;-74
2023/01/09 08:47:35;;;;;;;;;;;5.90;99.90;;;;;;5063137;28;1071;-74
2023/01/09 08:50:03;;;;;;;;;;;5.90;99.90;;;;;;5081134;28;1989;-75
2023/01/09 08:52:29;;;;;;;;;;;6.00;99.90;;;;;;5081301;28;1455;-75
2023/01/09 08:54:55;;;;;;;;;;;6.00;99.90;;;;;;5079318;28;1052;-74
2023/01/09 08:57:21;;;;;;;;;;;6.00;99.90;;;;;;5081208;28;1186;-74
2023/01/09 08:59:47;;;;;;;;;;;5.90;99.90;;;;;;5081201;28;993;-74
2023/01/09 09:02:12;;;;;;;;;;;5.90;99.90;;;;;;5080391;28;995;-74
2023/01/09 09:04:38;;;;;;;;;;;5.90;99.90;;;;;;5080693;28;1300;-74
2023/01/09 09:07:04;;;;;;;;;;;6.00;99.90;;;;;;5081431;28;1052;-74
2023/01/09 09:09:29;;;;;;;;;;;6.00;99.90;;;;;;5080969;28;1028;-74
2023/01/09 09:11:55;;;;;;;;;;;6.00;99.90;;;;;;5080901;28;1975;-75
2023/01/09 09:17:07;;;;;;;;;;;6.00;99.90;;;;;;5079873;28;1310;-74
2023/01/09 09:19:33;;;;;;;;;;;6.10;99.90;;;;;;5080146;28;1028;-74
2023/01/09 09:21:58;;;;;;;;;;;6.10;99.90;;;;;;5063130;28;1696;-75
2023/01/09 09:24:24;;;;;;;;;;;6.10;99.90;;;;;;5080056;28;1020;-74
2023/01/09 09:26:50;;;;;;;;;;;6.10;99.90;;;;;;5080515;28;981;-74
2023/01/09 09:29:15;;;;;;;;;;;6.10;99.90;;;;;;5080222;28;1077;-75
2023/01/09 09:31:41;;;;;;;;;;;6.20;99.90;;;;;;5061680;28;1910;-75
2023/01/09 09:34:07;;;;;;;;;;;6.10;99.90;;;;;;5062257;28;1052;-75
2023/01/09 09:36:33;;;;;;;;;;;6.10;99.90;;;;;;5079351;28;1134;-74
2023/01/09 09:38:59;;;;;;;;;;;6.20;99.90;;;;;;5081109;28;1103;-75
2023/01/09 09:44:42;;;;;;;;;;;6.20;99.90;;;;;;5079328;28;1100;-75
2023/01/09 09:47:17;;;;;;;;;;;6.30;99.90;;;;;;5080678;28;997;-75
2023/01/09 09:49:51;;;;;;;;;;;6.30;99.90;;;;;;5061748;28;1894;-75
2023/01/09 09:52:22;;;;;;;;;;;6.40;99.90;;;;;;5080249;28;1964;-75
2023/01/09 09:54:49;;;;;;;;;;;6.40;99.90;;;;;;5063290;28;1090;-75
2023/01/09 09:57:16;;;;;;;;;;;6.40;99.90;;;;;;5062712;28;1144;-75
2023/01/09 09:59:43;;;;;;;;;;;6.40;99.90;;;;;;5061119;28;1151;-75
2023/01/09 10:02:21;;;;;;;;;;;6.50;99.90;;;;;;5080725;28;1214;-75
2023/01/09 10:04:50;;;;;;;;;;;6.50;99.90;;;;;;5079166;28;1125;-75
2023/01/09 10:07:20;;;;;;;;;;;6.50;99.90;;;;;;5081007;28;1239;-75
2023/01/09 10:09:48;;;;;;;;;;;6.50;99.90;;;;;;5077875;28;998;-75
2023/01/09 10:12:15;;;;;;;;;;;6.60;99.90;;;;;;5078430;28;1967;-75
2023/01/09 10:14:40;;;;;;;;;;;6.50;99.90;;;;;;5079479;28;1071;-75
2023/01/09 10:17:14;;;;;;;;;;;6.50;99.90;;;;;;5080078;28;970;-75
2023/01/09 10:20:00;;;;;;;;;;;6.50;99.90;;;;;;5078264;28;1022;-75
2023/01/09 10:22:41;;;;;;;;;;;6.50;99.90;;;;;;5061132;28;1033;-74
2023/01/09 10:25:06;;;;;;;;;;;6.50;99.90;;;;;;5079467;28;1090;-75
2023/01/09 10:27:42;;;;;;;;;;;6.60;99.90;;;;;;5079109;28;1059;-74
2023/01/09 10:30:19;;;;;;;;;;;6.60;99.90;;;;;;5079371;28;1918;-75
2023/01/09 10:32:50;;;;;;;;;;;6.70;99.90;;;;;;5079675;28;1016;-74
2023/01/09 10:35:21;;;;;;;;;;;6.70;99.90;;;;;;5079908;28;1037;-75
2023/01/09 10:37:52;;;;;;;;;;;6.70;99.90;;;;;;5080059;28;1034;-74
2023/01/09 10:40:24;;;;;;;;;;;6.80;99.90;;;;;;5059761;28;1154;-74
2023/01/09 10:42:53;;;;;;;;;;;6.80;99.90;;;;;;5079845;28;1064;-75
2023/01/09 10:45:37;;;;;;;;;;;6.80;99.90;;;;;;5079756;28;969;-75
2023/01/09 10:48:10;;;;;;;;;;;6.90;99.90;;;;;;5077512;28;985;-74
2023/01/09 10:50:38;;;;;;;;;;;7.00;99.90;;;;;;5078659;28;1988;-74
2023/01/09 10:53:13;;;;;;;;;;;7.00;99.90;;;;;;5078692;28;1482;-75
2023/01/09 10:55:38;;;;;;;;;;;7.10;99.90;;;;;;5077932;28;1320;-74
2023/01/09 10:58:12;;;;;;;;;;;7.10;99.90;;;;;;5078658;28;1335;-74
2023/01/09 11:00:39;;;;;;;;;;;7.20;99.90;;;;;;5061444;28;1008;-74
2023/01/09 11:03:05;;;;;;;;;;;7.20;99.90;;;;;;5060638;28;1151;-74
2023/01/09 11:05:30;;;;;;;;;;;7.20;99.90;;;;;;5078909;28;1041;-74
2023/01/09 11:08:00;;;;;;;;;;;7.10;99.90;;;;;;5078810;28;1032;-74
2023/01/09 11:10:46;;;;;;;;;;;7.10;99.90;;;;;;5078383;28;1971;-74
2023/01/09 11:13:17;;;;;;;;;;;7.10;99.90;;;;;;5061197;28;1241;-74
2023/01/09 11:15:42;;;;;;;;;;;7.00;99.90;;;;;;5077787;28;1107;-74
2023/01/09 11:18:17;;;;;;;;;;;7.00;99.90;;;;;;5060514;28;982;-74
2023/01/09 11:20:43;;;;;;;;;;;7.00;99.90;;;;;;5078372;28;1090;-74
2023/01/09 11:23:22;;;;;;;;;;;7.00;99.90;;;;;;5059668;28;1191;-74
2023/01/09 11:25:52;;;;;;;;;;;6.90;99.90;;;;;;5060566;28;1089;-75
2023/01/09 11:28:18;;;;;;;;;;;7.00;99.90;;;;;;5078086;28;1033;-74
2023/01/09 11:30:59;;;;;;;;;;;7.00;99.90;;;;;;5059863;28;1912;-75
2023/01/09 11:33:26;;;;;;;;;;;6.90;99.90;;;;;;5079384;28;1118;-74
2023/01/09 11:35:55;;;;;;;;;;;7.00;99.90;;;;;;5080288;28;1132;-75
2023/01/09 11:38:21;;;;;;;;;;;7.00;99.90;;;;;;5078311;28;1129;-74
2023/01/09 11:40:48;;;;;;;;;;;6.90;99.90;;;;;;5077775;28;2752;-75
2023/01/09 11:43:17;;;;;;;;;;;6.80;99.90;;;;;;5078075;28;2995;-75
2023/01/09 11:45:47;;;;;;;;;;;6.80;99.90;;;;;;5078203;28;1071;-74
2023/01/09 11:48:18;;;;;;;;;;;6.70;99.90;;;;;;5078252;28;2972;-75
2023/01/09 11:50:51;;;;;;;;;;;6.60;99.90;;;;;;5058687;28;1977;-75
2023/01/09 11:53:18;;;;;;;;;;;6.50;99.90;;;;;;5059700;28;1025;-75
2023/01/09 11:55:45;;;;;;;;;;;6.40;99.90;;;;;;5078194;28;1421;-74
2023/01/09 11:58:16;;;;;;;;;;;6.40;99.90;;;;;;5076700;28;1053;-74
2023/01/09 12:00:47;;;;;;;;;;;6.30;99.90;;;;;;5077957;28;989;-75
2023/01/09 12:03:20;;;;;;;;;;;6.30;99.90;;;;;;5060742;28;1080;-74
2023/01/09 12:05:54;;;;;;;;;;;6.30;99.90;;;;;;5062098;28;1873;-74
2023/01/09 12:08:26;;;;;;;;;;;6.20;99.90;;;;;;5063488;28;992;-74
2023/01/09 12:11:01;;;;;;;;;;;6.30;99.90;;;;;;5083169;28;2852;-74
2023/01/09 12:13:36;;;;;;;;;;;6.20;99.90;;;;;;5082301;28;2568;-73
2023/01/09 12:16:01;;;;;;;;;;;6.30;99.90;;;;;;5063393;28;2648;-74
2023/01/09 12:18:31;;;;;;;;;;;6.30;99.90;;;;;;5081771;28;1139;-74
2023/01/09 12:20:59;;;;;;;;;;;6.30;99.90;;;;;;5081764;28;1032;-74
2023/01/09 12:23:29;;;;;;;;;;;6.30;99.90;;;;;;5081680;28;1025;-73
2023/01/09 12:25:58;;;;;;;;;;;6.30;99.90;;;;;;5080747;28;1261;-74
2023/01/09 12:28:51;;;;;;;;;;;6.30;99.90;;;;;;5082120;28;2709;-73
2023/01/09 12:31:25;;;;;;;;;;;6.40;99.90;;;;;;5063939;28;2001;-74
2023/01/09 12:34:00;;;;;;;;;;;6.40;99.90;;;;;;5082948;28;1243;-73
2023/01/09 12:36:29;;;;;;;;;;;6.50;99.90;;;;;;5084139;28;1089;-73
2023/01/09 12:39:01;;;;;;;;;;;6.50;99.90;;;;;;5082955;28;1081;-73
2023/01/09 12:41:35;;;;;;;;;;;6.50;99.90;;;;;;5082289;28;1093;-73
2023/01/09 12:44:19;;;;;;;;;;;6.50;99.90;;;;;;5065006;28;997;-73
2023/01/09 12:46:56;;;;;;;;;;;6.50;99.90;;;;;;5080971;28;1058;-74
2023/01/09 12:49:27;;;;;;;;;;;6.40;99.90;;;;;;5083799;28;1143;-74
2023/01/09 12:52:00;;;;;;;;;;;6.40;99.90;;;;;;5081435;28;1988;-73
2023/01/09 12:54:33;;;;;;;;;;;6.50;99.90;;;;;;5080007;28;1083;-74
2023/01/09 12:57:02;;;;;;;;;;;6.50;99.90;;;;;;5080761;28;1365;-75
2023/01/09 12:59:33;;;;;;;;;;;6.50;99.90;;;;;;5062851;28;1096;-75
2023/01/09 13:02:04;;;;;;;;;;;6.50;99.90;;;;;;5080432;28;1057;-75
2023/01/09 13:04:33;;;;;;;;;;;6.60;99.90;;;;;;5081541;28;1269;-74
2023/01/09 13:07:03;;;;;;;;;;;6.60;99.90;;;;;;5082245;28;1099;-74
2023/01/09 13:09:37;;;;;;;;;;;6.60;99.90;;;;;;5078873;28;2800;-74
2023/01/09 13:12:07;;;;;;;;;;;6.60;99.90;;;;;;5063242;28;1918;-74
2023/01/09 13:14:49;;;;;;;;;;;6.60;99.90;;;;;;5080578;28;1080;-74
2023/01/09 13:17:18;;;;;;;;;;;6.60;99.90;;;;;;5079690;28;1005;-75
2023/01/09 13:19:45;;;;;;;;;;;6.70;99.90;;;;;;5081466;28;1002;-75
2023/01/09 13:22:11;;;;;;;;;;;6.80;99.90;;;;;;5080146;28;1033;-74
2023/01/09 13:24:55;;;;;;;;;;;6.90;99.90;;;;;;5080472;28;1199;-74
2023/01/09 13:27:23;;;;;;;;;;;6.90;99.90;;;;;;5081747;28;1061;-74
2023/01/09 13:29:50;;;;;;;;;;;7.00;99.90;;;;;;5081351;28;1073;-74
2023/01/09 13:32:31;;;;;;;;;;;7.00;99.90;;;;;;5080335;28;1910;-75
2023/01/09 13:34:57;;;;;;;;;;;7.10;99.90;;;;;;5080186;28;1021;-75
2023/01/09 13:37:24;;;;;;;;;;;7.20;99.90;;;;;;5079711;28;1063;-75
2023/01/09 13:39:56;;;;;;;;;;;7.20;99.90;;;;;;5081596;28;1294;-75
2023/01/09 13:42:34;;;;;;;;;;;7.20;99.90;;;;;;5081090;28;932;-75
2023/01/09 13:45:09;;;;;;;;;;;7.10;99.90;;;;;;5078915;28;1037;-75
2023/01/09 13:47:35;;;;;;;;;;;7.10;99.90;;;;;;5081591;28;1167;-75
2023/01/09 13:50:07;;;;;;;;;;;7.20;99.90;;;;;;5081033;28;1125;-75
2023/01/09 13:52:36;;;;;;;;;;;7.20;99.90;;;;;;5079793;28;1969;-75
2023/01/09 13:55:22;;;;;;;;;;;7.20;99.90;;;;;;5080208;28;1201;-75
2023/01/09 13:58:03;;;;;;;;;;;7.20;99.90;;;;;;5061323;28;1216;-75
2023/01/09 14:00:38;;;;;;;;;;;7.20;99.90;;;;;;5080244;28;962;-75
2023/01/09 14:03:04;;;;;;;;;;;7.20;99.90;;;;;;5079368;28;1190;-75
2023/01/09 14:05:29;;;;;;;;;;;7.10;99.90;;;;;;5079455;28;1163;-75
2023/01/09 14:08:03;;;;;;;;;;;7.10;99.90;;;;;;5080073;28;1028;-75
2023/01/09 14:10:33;;;;;;;;;;;7.20;99.90;;;;;;5080162;28;1972;-75
2023/01/09 14:12:58;;;;;;;;;;;7.20;99.90;;;;;;5079411;28;1005;-75
2023/01/09 14:15:24;;;;;;;;;;;7.10;99.90;;;;;;5079850;28;1175;-75
2023/01/09 14:17:57;;;;;;;;;;;7.20;99.90;;;;;;5061811;28;1041;-76
2023/01/09 14:20:27;;;;;;;;;;;7.20;99.90;;;;;;5079214;28;986;-75
2023/01/09 14:22:56;;;;;;;;;;;7.20;99.90;;;;;;5061298;28;1022;-75
2023/01/09 14:25:25;;;;;;;;;;;7.20;99.90;;;;;;5079975;28;1057;-76
2023/01/09 14:27:53;;;;;;;;;;;7.20;99.90;;;;;;5079779;28;1099;-75
2023/01/09 14:30:25;;;;;;;;;;;7.20;99.90;;;;;;5078151;28;2805;-76
2023/01/09 14:32:56;;;;;;;;;;;7.20;99.90;;;;;;5060955;28;983;-76
2023/01/09 14:35:24;;;;;;;;;;;7.20;99.90;;;;;;5080100;28;2621;-76
2023/01/09 14:37:59;;;;;;;;;;;7.10;99.90;;;;;;5078991;28;1008;-75
2023/01/09 14:40:24;;;;;;;;;;;7.10;99.90;;;;;;5078599;28;1201;-76
2023/01/09 14:42:51;;;;;;;;;;;7.10;99.90;;;;;;5078986;28;1064;-75
2023/01/09 14:45:20;;;;;;;;;;;7.20;99.90;;;;;;5079243;28;1000;-76
2023/01/09 14:47:48;;;;;;;;;;;7.10;99.90;;;;;;5078077;28;2625;-75
2023/01/09 14:50:17;;;;;;;;;;;7.00;99.90;;;;;;5079212;28;1918;-76
2023/01/09 14:52:46;;;;;;;;;;;7.10;99.90;;;;;;5080400;28;1301;-76
2023/01/09 14:55:22;;;;;;;;;;;7.20;99.90;;;;;;5078985;28;1243;-75
2023/01/09 14:57:51;;;;;;;;;;;7.40;99.90;;;;;;5079124;28;1333;-76
2023/01/09 15:00:17;;;;;;;;;;;7.60;99.90;;;;;;5078429;28;1017;-76
2023/01/09 15:02:43;;;;;;;;;;;7.70;99.90;;;;;;5060275;28;1194;-75
2023/01/09 15:05:11;;;;;;;;;;;7.60;99.90;;;;;;5078028;28;1125;-76
2023/01/09 15:07:43;;;;;;;;;;;7.50;99.90;;;;;;5078474;28;1002;-75